Time;durP1;ratioP1;P1;durP2;ratioP2;P2;SDS_P1;SDS_P2;PMS_P1;PMS_P2;Temp;Humidity;BMP_temperature;BMP_pressure;BME280_temperature;BME280_humidity;BME280_pressure;Samples;Min_cycle;Max_cycle;Signal;HPM_P1;HPM_P2
2022/11/23 00:00:13;;;;;;;11.20;1.90;;;5.40;99.90;;;;;;4928166;28;20043;-76
2022/11/23 06:02:32;;;;;;;9.23;2.00;;;4.70;99.90;;;;;;5473122;23;20050;-76
2022/11/23 06:05:01;;;;;;;7.07;1.50;;;4.70;99.90;;;;;;4952054;28;20035;-76
2022/11/23 06:07:37;;;;;;;5.90;2.17;;;4.70;99.90;;;;;;4954289;29;20019;-77
2022/11/23 06:10:07;;;;;;;5.38;2.00;;;4.70;99.90;;;;;;4970632;28;20316;-73
2022/11/23 06:12:36;;;;;;;8.18;1.83;;;4.80;99.90;;;;;;4967514;28;20031;-76
2022/11/23 06:15:07;;;;;;;7.88;2.10;;;4.80;99.90;;;;;;4967949;28;20047;-76
2022/11/23 06:17:35;;;;;;;8.73;1.88;;;4.80;99.90;;;;;;4967434;28;20030;-75
2022/11/23 06:20:05;;;;;;;5.30;2.13;;;4.80;99.90;;;;;;4967074;28;20038;-75
2022/11/23 06:22:33;;;;;;;3.95;1.50;;;4.80;99.90;;;;;;4966706;28;20054;-76
2022/11/23 06:25:02;;;;;;;6.40;2.30;;;4.80;99.90;;;;;;4951623;28;20094;-74
2022/11/23 06:27:31;;;;;;;7.00;1.80;;;4.80;99.90;;;;;;4967338;28;20038;-76
2022/11/23 06:29:57;;;;;;;6.72;2.13;;;4.70;99.90;;;;;;4951490;28;20154;-78
2022/11/23 06:32:26;;;;;;;11.20;2.80;;;4.60;99.90;;;;;;4999053;28;20256;-77
2022/11/23 06:34:52;;;;;;;10.05;2.90;;;4.60;99.90;;;;;;4983255;28;20025;-76
2022/11/23 06:37:27;;;;;;;10.68;2.90;;;4.50;99.90;;;;;;4983564;28;20198;-76
2022/11/23 06:39:52;;;;;;;8.75;2.70;;;4.30;99.90;;;;;;4983386;28;20280;-75
2022/11/23 06:42:18;;;;;;;6.18;2.45;;;4.20;99.90;;;;;;4984172;28;20030;-77
2022/11/23 06:44:44;;;;;;;5.63;3.28;;;4.00;99.90;;;;;;4966608;28;20026;-76
2022/11/23 06:47:13;;;;;;;7.05;2.25;;;4.10;99.90;;;;;;4999658;28;20027;-76
2022/11/23 06:49:45;;;;;;;7.65;2.90;;;4.10;99.90;;;;;;4958889;28;20042;-76
2022/11/23 06:52:22;;;;;;;12.85;4.45;;;4.00;99.90;;;;;;4968089;28;20022;-75
2022/11/23 06:55:15;;;;;;;8.02;3.63;;;4.00;99.90;;;;;;4966259;28;20366;-78
2022/11/23 06:57:44;;;;;;;22.02;11.00;;;4.10;99.90;;;;;;4942776;28;20031;-78
2022/11/23 07:00:18;;;;;;;6.97;2.60;;;4.20;99.90;;;;;;4965899;28;20038;-77
2022/11/23 07:02:49;;;;;;;7.57;2.33;;;4.20;99.90;;;;;;4968664;28;20042;-77
2022/11/23 07:05:15;;;;;;;9.90;3.17;;;4.20;99.90;;;;;;4980864;28;20189;-76
2022/11/23 07:07:41;;;;;;;8.10;2.88;;;4.30;99.90;;;;;;5001310;28;20038;-77
2022/11/23 07:10:18;;;;;;;11.55;3.38;;;4.20;99.90;;;;;;4981612;28;20221;-75
2022/11/23 07:12:47;;;;;;;10.13;3.15;;;4.20;99.90;;;;;;4968130;28;20211;-78
2022/11/23 07:15:16;;;;;;;11.52;3.08;;;4.10;99.90;;;;;;4984562;28;20414;-76
2022/11/23 07:17:44;;;;;;;12.98;3.58;;;4.10;99.90;;;;;;4984156;28;20022;-76
2022/11/23 07:20:11;;;;;;;6.97;2.90;;;4.10;99.90;;;;;;5001807;28;20338;-77
2022/11/23 07:22:40;;;;;;;10.10;3.28;;;4.10;99.90;;;;;;4968077;28;20054;-75
2022/11/23 07:25:07;;;;;;;9.40;2.63;;;4.10;99.90;;;;;;4984242;28;20030;-76
2022/11/23 07:27:42;;;;;;;8.65;2.60;;;4.00;99.90;;;;;;4983484;28;20034;-76
2022/11/23 07:30:10;;;;;;;9.13;2.75;;;4.10;99.90;;;;;;4970334;28;20186;-77
2022/11/23 07:32:38;;;;;;;9.00;2.65;;;4.10;99.90;;;;;;4986934;28;20386;-77
2022/11/23 07:35:05;;;;;;;9.65;2.88;;;4.10;99.90;;;;;;4971315;28;20026;-76
2022/11/23 07:37:34;;;;;;;8.57;2.97;;;4.20;99.90;;;;;;4972827;28;20089;-76
2022/11/23 07:40:00;;;;;;;7.65;2.67;;;4.20;99.90;;;;;;4967971;28;20034;-77
2022/11/23 07:42:32;;;;;;;12.23;3.03;;;4.30;99.90;;;;;;4968582;28;20315;-77
2022/11/23 07:44:58;;;;;;;9.07;3.60;;;4.40;99.90;;;;;;4964948;28;21234;-76
2022/11/23 07:47:30;;;;;;;10.25;3.40;;;4.40;99.90;;;;;;4976649;28;20386;-78
2022/11/23 07:49:56;;;;;;;6.50;2.80;;;4.50;99.90;;;;;;4986102;28;20030;-76
2022/11/23 07:55:33;;;;;;;10.38;3.30;;;4.60;99.90;;;;;;5000306;28;20030;-79
2022/11/23 07:58:05;;;;;;;7.18;2.78;;;4.60;99.90;;;;;;4978531;28;20065;-77
2022/11/23 08:00:34;;;;;;;8.98;3.40;;;4.70;99.90;;;;;;4960945;28;20034;-76
2022/11/23 08:03:14;;;;;;;27.75;14.40;;;4.80;99.90;;;;;;4997042;28;20078;-77
2022/11/23 08:05:49;;;;;;;12.93;6.03;;;4.90;99.90;;;;;;5000283;28;20030;-77
2022/11/23 08:08:22;;;;;;;6.85;3.30;;;4.90;99.90;;;;;;5000517;28;20083;-78
2022/11/23 08:10:57;;;;;;;7.03;2.80;;;4.90;99.90;;;;;;4967232;28;20391;-74
2022/11/23 08:13:22;;;;;;;10.05;3.35;;;5.00;99.90;;;;;;4981409;28;20042;-76
2022/11/23 08:15:50;;;;;;;11.38;3.15;;;5.10;99.90;;;;;;4980589;28;20031;-76
2022/11/23 08:18:28;;;;;;;5.68;2.75;;;5.20;99.90;;;;;;4981843;28;20045;-76
2022/11/23 08:20:57;;;;;;;9.40;3.28;;;5.20;99.90;;;;;;4964140;28;20030;-76
2022/11/23 08:23:24;;;;;;;8.40;2.80;;;5.30;99.90;;;;;;4982990;28;20035;-78
2022/11/23 08:25:56;;;;;;;9.40;3.13;;;5.40;99.90;;;;;;4984451;28;20031;-72
2022/11/23 08:28:39;;;;;;;8.75;3.10;;;5.40;99.90;;;;;;4984748;28;20043;-76
2022/11/23 08:31:26;;;;;;;7.03;2.95;;;5.50;99.90;;;;;;4985312;28;20053;-76
2022/11/23 08:33:52;;;;;;;10.43;2.80;;;5.60;99.90;;;;;;4984500;28;20062;-79
2022/11/23 08:36:19;;;;;;;7.40;2.67;;;5.70;99.90;;;;;;4984856;28;20020;-74
2022/11/23 08:38:56;;;;;;;6.30;2.80;;;5.70;99.90;;;;;;4951096;28;20072;-77
2022/11/23 08:41:29;;;;;;;10.85;3.40;;;5.70;99.90;;;;;;4997363;28;20261;-76
2022/11/23 08:43:55;;;;;;;9.77;3.30;;;5.80;99.90;;;;;;5003572;28;20026;-76
2022/11/23 08:46:21;;;;;;;8.20;3.00;;;5.80;99.90;;;;;;5003579;28;20038;-76
2022/11/23 08:48:53;;;;;;;12.23;3.40;;;5.80;99.90;;;;;;5003858;28;20034;-74
2022/11/23 08:51:21;;;;;;;10.52;3.85;;;5.90;99.90;;;;;;5003838;28;20076;-75
2022/11/23 08:53:48;;;;;;;16.65;4.40;;;5.90;99.90;;;;;;4986259;28;20215;-75
2022/11/23 08:56:32;;;;;;;12.38;4.20;;;6.00;99.90;;;;;;4999254;28;20320;-75
2022/11/23 08:59:38;;;;;;;12.10;4.43;;;6.00;99.90;;;;;;4984689;28;20425;-74
2022/11/23 09:02:13;;;;;;;15.30;3.50;;;6.10;99.90;;;;;;4983629;28;20051;-76
2022/11/23 09:04:49;;;;;;;7.60;3.13;;;6.10;99.90;;;;;;4983672;28;20259;-75
2022/11/23 09:07:49;;;;;;;8.57;3.00;;;6.20;99.90;;;;;;4997831;28;20077;-75
2022/11/23 09:10:22;;;;;;;9.50;3.45;;;6.30;99.90;;;;;;4993540;28;20030;-76
2022/11/23 09:20:51;;;;;;;7.20;2.65;;;6.60;99.90;;;;;;4984882;28;20054;-76
2022/11/23 09:23:18;;;;;;;7.32;2.67;;;6.80;99.90;;;;;;4999138;28;20038;-74
2022/11/23 09:29:33;;;;;;;11.93;2.75;;;6.80;99.90;;;;;;4977669;28;20093;-74
2022/11/23 09:32:00;;;;;;;5.88;2.63;;;6.90;99.90;;;;;;4994622;28;20165;-74
2022/11/23 09:34:29;;;;;;;8.65;3.08;;;6.90;99.90;;;;;;4996366;28;20255;-76
2022/11/23 09:37:13;;;;;;;9.40;2.97;;;6.90;99.90;;;;;;4995509;28;20027;-75
2022/11/23 09:39:41;;;;;;;11.15;5.00;;;7.00;99.90;;;;;;4975907;28;20370;-75
2022/11/23 09:42:28;;;;;;;18.05;9.63;;;7.10;99.90;;;;;;4974281;28;20034;-75
2022/11/23 09:48:44;;;;;;;7.32;2.72;;;7.20;99.90;;;;;;4997962;28;20064;-73
2022/11/23 09:51:29;;;;;;;6.32;2.70;;;7.30;99.90;;;;;;5002698;28;20323;-75
2022/11/23 09:54:03;;;;;;;6.43;2.40;;;7.40;99.90;;;;;;4985337;28;20053;-77
2022/11/23 09:56:35;;;;;;;9.05;2.70;;;7.50;99.90;;;;;;4986491;28;20025;-78
2022/11/23 09:59:10;;;;;;;10.70;3.05;;;7.60;99.90;;;;;;4985198;28;20173;-75
2022/11/23 10:01:36;;;;;;;5.25;2.20;;;7.70;99.90;;;;;;5002929;28;20018;-77
2022/11/23 10:04:06;;;;;;;6.78;2.03;;;7.80;99.90;;;;;;4986030;28;20034;-76
2022/11/23 10:06:41;;;;;;;8.13;2.42;;;7.90;99.90;;;;;;4984919;28;20023;-75
2022/11/23 10:09:24;;;;;;;9.93;4.82;;;7.90;99.90;;;;;;5002436;28;20038;-77
2022/11/23 10:12:11;;;;;;;14.90;7.65;;;8.00;99.90;;;;;;4982890;28;20085;-78
2022/11/23 10:15:07;;;;;;;7.17;2.47;;;8.10;99.90;;;;;;4965867;28;20335;-77
2022/11/23 10:17:58;;;;;;;4.43;1.70;;;8.20;99.90;;;;;;4983265;28;20046;-76
2022/11/23 10:21:04;;;;;;;9.27;2.25;;;8.30;99.90;;;;;;4964468;28;20043;-78
2022/11/23 10:23:48;;;;;;;6.65;2.70;;;8.40;99.90;;;;;;4965332;28;20109;-77
2022/11/23 10:26:36;;;;;;;8.48;2.42;;;8.60;99.90;;;;;;5002651;28;20037;-76
2022/11/23 10:29:41;;;;;;;7.38;2.10;;;8.80;99.90;;;;;;4983428;28;20208;-79
2022/11/23 10:32:18;;;;;;;5.80;1.90;;;9.10;99.90;;;;;;4983970;28;20030;-77
2022/11/23 10:35:08;;;;;;;6.82;1.90;;;9.30;99.90;;;;;;4984384;28;20032;-77
2022/11/23 10:37:34;;;;;;;6.35;2.35;;;9.50;99.90;;;;;;4983485;28;20030;-78
2022/11/23 10:40:00;;;;;;;6.57;1.58;;;9.80;99.90;;;;;;4949417;28;20030;-76
2022/11/23 10:42:39;;;;;;;4.90;1.63;;;10.20;99.90;;;;;;4965488;28;20046;-75
2022/11/23 10:45:18;;;;;;;6.10;1.48;;;10.50;99.90;;;;;;4995705;28;20316;-77
2022/11/23 10:47:58;;;;;;;5.75;1.45;;;10.80;99.90;;;;;;4978881;28;20057;-77
2022/11/23 10:50:41;;;;;;;13.75;7.97;;;11.20;99.80;;;;;;5001756;28;20023;-77
2022/11/23 10:53:27;;;;;;;5.20;1.40;;;11.60;98.70;;;;;;5001940;28;20129;-75
2022/11/23 10:56:15;;;;;;;3.85;1.20;;;12.20;98.00;;;;;;4968247;28;20022;-75
2022/11/23 10:58:49;;;;;;;5.72;1.60;;;12.50;96.70;;;;;;4968702;28;20030;-75
2022/11/23 11:01:23;;;;;;;4.07;1.02;;;13.10;95.90;;;;;;5001783;28;20114;-76
2022/11/23 11:03:51;;;;;;;5.25;1.60;;;13.10;95.30;;;;;;4967152;28;20041;-77
2022/11/23 11:06:38;;;;;;;3.65;1.38;;;13.70;94.20;;;;;;4968849;28;20102;-75
2022/11/23 11:09:16;;;;;;;6.00;1.65;;;13.90;93.10;;;;;;4998902;28;20034;-77
2022/11/23 11:11:47;;;;;;;8.35;1.85;;;14.40;92.80;;;;;;5001110;28;20076;-76
2022/11/23 11:14:22;;;;;;;3.42;1.48;;;14.80;92.40;;;;;;4967880;28;20027;-77
2022/11/23 11:17:33;;;;;;;5.25;1.27;;;15.00;91.40;;;;;;4981941;28;20035;-74
2022/11/23 11:24:06;;;;;;;4.28;1.83;;;15.60;90.00;;;;;;5001536;28;20026;-74
2022/11/23 11:26:56;;;;;;;4.30;1.60;;;16.20;89.10;;;;;;4982765;28;20060;-76
2022/11/23 11:29:53;;;;;;;3.90;1.40;;;16.80;86.00;;;;;;4965561;28;20224;-76
2022/11/23 11:32:30;;;;;;;9.20;3.95;;;17.10;84.80;;;;;;5002654;28;20272;-75
2022/11/23 11:35:14;;;;;;;4.20;1.90;;;17.50;83.00;;;;;;4986393;28;20026;-77
2022/11/23 11:38:00;;;;;;;;;;;;;;;;;;;;;
2022/11/23 11:40:50;;;;;;;5.35;1.58;;;17.40;79.90;;;;;;4984781;28;20039;-75
2022/11/23 11:44:09;;;;;;;3.97;1.38;;;17.30;79.80;;;;;;4966254;28;20022;-76
2022/11/23 11:47:42;;;;;;;3.10;1.40;;;17.60;79.50;;;;;;4983218;28;20208;-75
2022/11/23 11:50:51;;;;;;;3.85;1.17;;;17.90;77.80;;;;;;4942793;28;20177;-78
2022/11/23 11:53:29;;;;;;;3.83;1.27;;;18.00;77.90;;;;;;4981713;28;20031;-74
2022/11/23 11:56:04;;;;;;;4.80;1.33;;;18.10;76.70;;;;;;4983052;28;20324;-75
2022/11/23 11:58:44;;;;;;;4.15;1.50;;;18.00;76.50;;;;;;5004488;28;20049;-76
2022/11/23 12:01:29;;;;;;;3.67;1.20;;;18.20;76.30;;;;;;4987895;28;20036;-76
2022/11/23 12:04:10;;;;;;;3.75;1.33;;;18.00;75.80;;;;;;5004761;28;20133;-77
2022/11/23 12:07:10;;;;;;;4.38;1.20;;;17.90;76.70;;;;;;5004634;28;20018;-77
2022/11/23 12:09:44;;;;;;;4.00;1.10;;;18.00;74.80;;;;;;5004230;28;20030;-77
2022/11/23 12:12:23;;;;;;;3.28;1.25;;;18.50;75.50;;;;;;5005335;28;20030;-79
2022/11/23 12:14:50;;;;;;;3.50;0.90;;;18.80;73.10;;;;;;5005463;28;20030;-75
2022/11/23 12:17:30;;;;;;;3.17;1.02;;;18.40;72.90;;;;;;5005799;28;20034;-75
2022/11/23 12:20:29;;;;;;;2.58;0.80;;;18.70;72.30;;;;;;5004684;28;20061;-78
2022/11/23 12:23:24;;;;;;;3.00;0.90;;;18.50;72.60;;;;;;5004379;28;20038;-76
2022/11/23 12:26:23;;;;;;;3.28;1.02;;;18.30;72.30;;;;;;4984394;28;20050;-76
2022/11/23 12:28:58;;;;;;;3.53;1.00;;;18.30;72.20;;;;;;4986330;28;20320;-77
2022/11/23 12:31:38;;;;;;;3.95;1.00;;;18.20;72.90;;;;;;5004566;28;20057;-77
2022/11/23 12:34:11;;;;;;;2.47;0.77;;;18.20;72.10;;;;;;5004382;28;20030;-76
2022/11/23 12:36:43;;;;;;;3.17;1.02;;;17.60;73.30;;;;;;4987329;28;20034;-75
2022/11/23 12:39:39;;;;;;;3.45;0.73;;;17.80;74.00;;;;;;4969534;28;20030;-78
2022/11/23 12:42:38;;;;;;;4.57;1.60;;;17.20;72.90;;;;;;4985531;28;20041;-77
2022/11/23 12:45:21;;;;;;;5.25;1.02;;;16.80;75.10;;;;;;4967936;28;20117;-78
2022/11/23 12:48:07;;;;;;;1.95;0.68;;;15.90;74.30;;;;;;4984377;28;20274;-77
2022/11/23 12:50:42;;;;;;;3.42;1.00;;;15.70;76.30;;;;;;4985403;28;20322;-77
2022/11/23 12:53:26;;;;;;;5.55;1.20;;;15.40;78.00;;;;;;4998137;28;20030;-78
2022/11/23 12:56:13;;;;;;;3.00;0.70;;;15.50;78.60;;;;;;5004419;28;20038;-76
2022/11/23 12:58:41;;;;;;;3.30;0.55;;;15.70;77.90;;;;;;5004134;28;20034;-78
2022/11/23 13:01:25;;;;;;;3.97;1.63;;;16.00;77.40;;;;;;4987126;28;20030;-77
2022/11/23 13:04:17;;;;;;;5.65;2.40;;;15.90;77.40;;;;;;4986922;28;20460;-77
2022/11/23 13:07:07;;;;;;;3.80;1.23;;;15.60;77.80;;;;;;4970566;28;20061;-76
2022/11/23 13:10:04;;;;;;;4.93;1.23;;;15.30;78.40;;;;;;4985661;28;20046;-78
2022/11/23 13:12:49;;;;;;;4.70;1.80;;;15.30;79.30;;;;;;4987789;28;20045;-79
2022/11/23 13:15:27;;;;;;;4.03;1.40;;;15.10;79.40;;;;;;4987466;28;20030;-77
2022/11/23 13:18:24;;;;;;;5.47;1.08;;;15.00;79.60;;;;;;4986659;28;20354;-76
2022/11/23 13:21:05;;;;;;;3.10;1.27;;;15.00;79.20;;;;;;5003087;28;20101;-78
2022/11/23 13:23:35;;;;;;;3.25;1.30;;;15.10;79.50;;;;;;5004160;28;20101;-77
2022/11/23 13:26:23;;;;;;;3.30;1.45;;;15.00;79.90;;;;;;4985384;28;20050;-78
2022/11/23 13:28:55;;;;;;;4.07;1.27;;;14.90;79.80;;;;;;4985922;28;20080;-78
2022/11/23 13:31:25;;;;;;;5.18;1.98;;;14.80;80.20;;;;;;4988663;28;20038;-78
2022/11/23 13:34:01;;;;;;;3.85;1.10;;;14.40;80.80;;;;;;4985512;28;20034;-78
2022/11/23 13:36:31;;;;;;;2.53;1.13;;;14.10;82.50;;;;;;5003681;28;20154;-79
2022/11/23 13:38:57;;;;;;;4.65;2.40;;;13.90;83.40;;;;;;5004726;28;20031;-77
2022/11/23 13:41:39;;;;;;;8.68;4.80;;;13.90;83.30;;;;;;5004538;28;20034;-78
2022/11/23 13:44:29;;;;;;;4.10;1.38;;;13.90;83.80;;;;;;4967361;28;20233;-76
2022/11/23 13:46:56;;;;;;;4.32;1.30;;;14.00;83.70;;;;;;4979488;28;20034;-77
2022/11/23 13:49:41;;;;;;;3.83;0.88;;;14.40;82.80;;;;;;5004576;28;20026;-78
2022/11/23 13:52:24;;;;;;;3.17;0.95;;;14.80;82.00;;;;;;5003631;28;20065;-74
2022/11/23 13:54:59;;;;;;;4.50;1.95;;;15.00;81.30;;;;;;5002599;28;20030;-74
2022/11/23 13:57:25;;;;;;;5.60;1.63;;;15.60;80.40;;;;;;4985746;28;20034;-76
2022/11/23 13:59:50;;;;;;;4.57;1.23;;;15.60;79.50;;;;;;5002544;28;20050;-75
2022/11/23 14:02:27;;;;;;;3.58;1.40;;;15.40;80.20;;;;;;5002827;28;20267;-77
2022/11/23 14:05:30;;;;;;;2.95;0.80;;;15.20;80.40;;;;;;4998128;28;20046;-77
2022/11/23 14:07:57;;;;;;;4.57;1.08;;;14.80;81.70;;;;;;5001609;28;20288;-77
2022/11/23 14:10:24;;;;;;;3.70;1.08;;;14.70;81.90;;;;;;5002435;28;20336;-77
2022/11/23 14:13:10;;;;;;;5.88;3.28;;;15.00;80.50;;;;;;5002074;28;20030;-77
2022/11/23 14:15:38;;;;;;;3.58;1.30;;;15.10;80.40;;;;;;5001562;28;20100;-76
2022/11/23 14:18:37;;;;;;;2.33;0.68;;;14.80;79.70;;;;;;5001323;28;20038;-76
2022/11/23 14:21:15;;;;;;;2.80;0.80;;;14.60;79.50;;;;;;5001727;28;20046;-75
2022/11/23 14:24:00;;;;;;;3.95;0.82;;;14.70;79.20;;;;;;5001627;28;20204;-79
2022/11/23 14:26:51;;;;;;;3.10;0.57;;;14.70;79.30;;;;;;5002577;28;20023;-77
2022/11/23 14:29:57;;;;;;;2.08;0.70;;;14.40;80.50;;;;;;5001359;28;20034;-76
2022/11/23 14:32:54;;;;;;;2.35;1.00;;;14.40;81.10;;;;;;4974061;28;20271;-76
2022/11/23 14:36:07;;;;;;;4.20;0.77;;;15.00;79.40;;;;;;5002524;28;20081;-78
2022/11/23 14:38:55;;;;;;;3.13;0.80;;;15.20;79.00;;;;;;4892241;29;20036;-79
2022/11/23 14:41:28;;;;;;;3.10;0.63;;;15.10;78.90;;;;;;4953127;28;20109;-80
2022/11/23 14:44:02;;;;;;;4.20;0.63;;;15.30;78.40;;;;;;5002005;28;20130;-79
2022/11/23 14:46:27;;;;;;;3.30;0.65;;;14.90;79.30;;;;;;5002178;28;20042;-77
2022/11/23 14:49:11;;;;;;;4.53;1.13;;;14.50;79.90;;;;;;5001032;28;20026;-78
2022/11/23 14:51:43;;;;;;;5.50;1.83;;;14.10;81.90;;;;;;5002113;28;20098;-77
2022/11/23 14:54:10;;;;;;;6.60;2.20;;;13.60;82.60;;;;;;5001885;28;20287;-75
2022/11/23 14:56:40;;;;;;;5.80;1.88;;;13.10;84.10;;;;;;5001956;28;20037;-74
2022/11/23 14:59:22;;;;;;;7.65;2.50;;;12.50;86.10;;;;;;5002964;28;20093;-75
2022/11/23 15:01:54;;;;;;;4.32;1.65;;;12.00;88.00;;;;;;4985405;28;20097;-75
2022/11/23 15:04:33;;;;;;;4.45;1.30;;;11.50;89.40;;;;;;5004841;28;20038;-76
2022/11/23 15:07:23;;;;;;;3.97;0.93;;;11.10;90.50;;;;;;4996733;28;20103;-76
2022/11/23 15:10:03;;;;;;;4.00;0.88;;;10.80;90.90;;;;;;5003244;28;20042;-76
2022/11/23 15:12:44;;;;;;;3.92;1.42;;;10.50;91.30;;;;;;5015309;28;20026;-72
2022/11/23 15:15:25;;;;;;;3.08;0.95;;;10.40;91.80;;;;;;5002322;28;20033;-79
2022/11/23 15:18:01;;;;;;;4.55;1.42;;;10.20;92.00;;;;;;5001404;28;20097;-74
2022/11/23 15:20:58;;;;;;;3.08;0.90;;;10.10;92.10;;;;;;5001683;28;20061;-76
2022/11/23 15:23:51;;;;;;;4.00;0.80;;;10.10;92.30;;;;;;4993279;28;20066;-75
2022/11/23 15:26:31;;;;;;;4.00;0.75;;;10.00;92.60;;;;;;5001697;28;20671;-77
2022/11/23 15:28:57;;;;;;;3.58;0.77;;;9.80;92.50;;;;;;5001256;28;20173;-77
2022/11/23 15:31:35;;;;;;;2.85;0.73;;;9.70;92.60;;;;;;5000743;28;20039;-80
2022/11/23 15:34:15;;;;;;;2.13;0.80;;;9.60;92.80;;;;;;5001897;28;20027;-82
2022/11/23 15:36:43;;;;;;;4.50;2.35;;;9.50;93.00;;;;;;4968106;28;20038;-77
2022/11/23 15:39:19;;;;;;;4.43;1.80;;;9.50;93.10;;;;;;4984454;28;20105;-78
2022/11/23 15:42:03;;;;;;;4.45;1.65;;;9.50;92.90;;;;;;4983801;28;20026;-77
2022/11/23 15:44:32;;;;;;;4.00;1.90;;;9.50;92.90;;;;;;5001550;28;20035;-77
2022/11/23 15:47:06;;;;;;;5.05;1.30;;;9.50;92.90;;;;;;5000675;28;20034;-75
2022/11/23 15:49:45;;;;;;;4.70;0.85;;;9.50;92.90;;;;;;4983792;28;20093;-77
2022/11/23 15:52:18;;;;;;;3.50;0.88;;;9.40;92.90;;;;;;4984135;28;20085;-77
2022/11/23 15:54:47;;;;;;;3.33;1.08;;;9.50;92.90;;;;;;5001527;28;20038;-76
2022/11/23 15:57:22;;;;;;;2.70;1.00;;;9.50;93.00;;;;;;4984220;28;20066;-78
2022/11/23 16:00:08;;;;;;;4.22;1.27;;;9.50;92.80;;;;;;4983438;28;20042;-78
2022/11/23 16:02:42;;;;;;;4.22;1.30;;;9.50;93.10;;;;;;4984138;28;20053;-79
2022/11/23 16:05:57;;;;;;;4.82;0.90;;;9.50;93.00;;;;;;5001182;28;20026;-78
2022/11/23 16:08:40;;;;;;;3.03;0.70;;;9.50;93.20;;;;;;4956407;28;20065;-77
2022/11/23 16:11:29;;;;;;;4.35;1.02;;;9.50;93.20;;;;;;5000811;28;20032;-78
2022/11/23 16:14:13;;;;;;;3.88;1.13;;;9.50;93.10;;;;;;4981421;28;20035;-76
2022/11/23 16:16:47;;;;;;;6.28;1.10;;;9.50;93.00;;;;;;4947896;28;20054;-78
2022/11/23 16:19:32;;;;;;;3.72;1.10;;;9.50;93.20;;;;;;4981699;28;20316;-77
2022/11/23 16:22:36;;;;;;;3.20;1.15;;;9.60;93.10;;;;;;4981564;28;20339;-77
2022/11/23 16:25:33;;;;;;;3.03;0.68;;;9.60;92.80;;;;;;4963812;28;20023;-77
2022/11/23 16:28:24;;;;;;;2.75;0.90;;;9.60;93.10;;;;;;4961887;28;20054;-77
2022/11/23 16:30:59;;;;;;;3.33;0.85;;;9.60;92.90;;;;;;4964803;28;20042;-76
2022/11/23 16:33:25;;;;;;;5.13;1.00;;;9.60;93.00;;;;;;4998627;28;20053;-77
2022/11/23 16:35:52;;;;;;;3.88;1.05;;;9.60;93.00;;;;;;5000580;28;20064;-76
2022/11/23 16:38:19;;;;;;;2.92;0.90;;;9.60;93.10;;;;;;5000810;28;20069;-77
2022/11/23 16:40:55;;;;;;;3.72;0.73;;;9.60;93.10;;;;;;4983180;28;20063;-77
2022/11/23 16:43:26;;;;;;;3.13;1.17;;;9.50;93.10;;;;;;4989570;28;20089;-77
2022/11/23 16:45:55;;;;;;;4.28;1.15;;;9.50;93.20;;;;;;4967352;28;20057;-78
2022/11/23 16:48:51;;;;;;;4.43;1.20;;;9.50;93.60;;;;;;4987241;28;20032;-76
2022/11/23 16:51:29;;;;;;;3.17;1.10;;;9.50;93.30;;;;;;5002185;28;20022;-76
2022/11/23 16:54:18;;;;;;;5.03;1.17;;;9.50;93.70;;;;;;5003250;28;20038;-76
2022/11/23 16:56:44;;;;;;;4.28;1.15;;;9.40;94.30;;;;;;5004046;28;20289;-76
2022/11/23 16:59:17;;;;;;;3.38;1.40;;;9.40;94.80;;;;;;5003934;28;20018;-76
2022/11/23 17:01:52;;;;;;;3.33;1.30;;;9.40;95.80;;;;;;4998244;28;20030;-76
2022/11/23 17:04:18;;;;;;;3.50;1.60;;;9.30;96.10;;;;;;4970975;28;20090;-76
2022/11/23 17:06:44;;;;;;;4.13;1.83;;;9.30;96.60;;;;;;4979420;28;20034;-76
2022/11/23 17:09:10;;;;;;;4.63;1.70;;;9.20;97.30;;;;;;4981439;28;20030;-77
2022/11/23 17:11:39;;;;;;;5.57;1.90;;;9.20;97.90;;;;;;4974118;28;20119;-78
2022/11/23 17:14:07;;;;;;;4.40;1.60;;;9.20;97.90;;;;;;4975279;28;20035;-79
2022/11/23 17:16:33;;;;;;;5.32;1.83;;;9.10;98.80;;;;;;4984531;28;20019;-76
2022/11/23 17:18:58;;;;;;;8.93;4.15;;;9.10;98.30;;;;;;4973223;28;20090;-77
2022/11/23 17:21:24;;;;;;;6.40;2.58;;;9.00;98.70;;;;;;4984893;28;20027;-76
2022/11/23 17:23:50;;;;;;;5.25;1.65;;;9.00;99.10;;;;;;4983992;28;20048;-79
2022/11/23 17:26:36;;;;;;;7.13;3.10;;;9.00;98.90;;;;;;4984383;28;20304;-74
2022/11/23 17:29:05;;;;;;;4.13;1.80;;;8.90;98.80;;;;;;4976844;28;20045;-78
2022/11/23 17:31:30;;;;;;;3.90;1.50;;;8.90;98.90;;;;;;4966792;28;20029;-76
2022/11/23 17:33:56;;;;;;;7.97;2.00;;;8.90;98.90;;;;;;4981975;28;20054;-76
2022/11/23 17:36:23;;;;;;;3.03;0.85;;;8.90;99.80;;;;;;4975346;28;20205;-79
2022/11/23 17:38:49;;;;;;;2.72;1.05;;;8.80;99.70;;;;;;4947916;29;20116;-76
2022/11/23 17:41:15;;;;;;;2.55;1.00;;;8.70;99.90;;;;;;4965551;29;20043;-78
2022/11/23 17:43:41;;;;;;;2.85;0.98;;;8.70;99.90;;;;;;4980487;28;20065;-74
2022/11/23 17:46:22;;;;;;;3.13;0.93;;;8.70;99.90;;;;;;4984564;28;20034;-76
2022/11/23 17:48:56;;;;;;;3.30;1.40;;;8.60;99.90;;;;;;4984864;28;20336;-74
2022/11/23 17:51:22;;;;;;;3.85;1.70;;;8.60;99.90;;;;;;4984680;28;20034;-75
2022/11/23 17:53:48;;;;;;;3.70;1.20;;;8.60;99.90;;;;;;4966271;28;20077;-75
2022/11/23 17:56:22;;;;;;;3.97;1.30;;;8.50;99.90;;;;;;4982176;28;20252;-74
2022/11/23 17:58:48;;;;;;;5.47;2.20;;;8.50;99.90;;;;;;4983400;28;20044;-75
2022/11/23 18:01:16;;;;;;;4.82;1.98;;;8.50;99.90;;;;;;4984314;28;20142;-75
2022/11/23 18:03:43;;;;;;;2.88;1.27;;;8.40;99.90;;;;;;4998857;28;20082;-73
2022/11/23 18:06:21;;;;;;;4.13;1.50;;;8.40;99.90;;;;;;4985893;28;20026;-74
2022/11/23 18:08:47;;;;;;;5.75;2.33;;;8.40;99.90;;;;;;4968897;28;20072;-73
2022/11/23 18:11:14;;;;;;;5.82;1.90;;;8.40;99.90;;;;;;5002544;28;20034;-73
2022/11/23 18:13:41;;;;;;;3.72;1.40;;;8.30;99.90;;;;;;5002764;28;20082;-74
2022/11/23 18:16:07;;;;;;;2.90;1.10;;;8.20;99.90;;;;;;4985036;28;20137;-76
2022/11/23 18:18:33;;;;;;;3.10;1.60;;;8.10;99.90;;;;;;5002537;28;20031;-75
2022/11/23 18:20:59;;;;;;;4.15;1.15;;;8.10;99.90;;;;;;5001735;28;20050;-74
2022/11/23 18:23:26;;;;;;;4.55;1.77;;;8.00;99.90;;;;;;5002729;28;20069;-75
2022/11/23 18:26:04;;;;;;;6.43;1.73;;;8.00;99.90;;;;;;5002138;28;20056;-76
2022/11/23 18:28:30;;;;;;;7.65;3.85;;;7.90;99.90;;;;;;5002839;28;20076;-73
2022/11/23 18:30:56;;;;;;;4.22;2.00;;;7.80;99.90;;;;;;5002074;28;20038;-76
2022/11/23 18:33:25;;;;;;;6.07;1.80;;;7.80;99.90;;;;;;5002753;28;20022;-74
2022/11/23 18:35:51;;;;;;;7.40;4.00;;;7.80;99.90;;;;;;5001541;28;20098;-75
2022/11/23 18:38:16;;;;;;;6.90;3.45;;;7.80;99.90;;;;;;5002409;28;20083;-76
2022/11/23 18:40:45;;;;;;;4.15;2.22;;;7.80;99.90;;;;;;5002197;28;20049;-77
2022/11/23 18:43:10;;;;;;;3.38;1.67;;;7.80;99.90;;;;;;4974064;28;20086;-74
2022/11/23 18:45:36;;;;;;;5.20;2.53;;;7.80;99.90;;;;;;4982813;28;20026;-74
2022/11/23 18:48:02;;;;;;;4.60;1.92;;;7.80;99.90;;;;;;4968046;28;20091;-75
2022/11/23 18:50:28;;;;;;;7.55;2.65;;;7.80;99.90;;;;;;4965288;28;20041;-76
2022/11/23 18:52:54;;;;;;;3.50;1.67;;;7.80;99.90;;;;;;4982537;28;20034;-75
2022/11/23 18:55:20;;;;;;;4.85;2.08;;;7.80;99.90;;;;;;4982729;28;20034;-74
2022/11/23 18:57:45;;;;;;;5.03;2.10;;;7.80;99.90;;;;;;4998445;28;20023;-74
2022/11/23 19:00:14;;;;;;;4.63;1.92;;;7.80;99.90;;;;;;5002273;28;20030;-74
2022/11/23 19:02:40;;;;;;;6.45;2.10;;;7.80;99.90;;;;;;5002322;28;20055;-74
2022/11/23 19:05:06;;;;;;;5.70;2.40;;;7.70;99.90;;;;;;5002211;28;20033;-75
2022/11/23 19:07:31;;;;;;;6.57;2.35;;;7.70;99.90;;;;;;5002231;28;20113;-76
2022/11/23 19:09:57;;;;;;;8.73;5.13;;;7.60;99.90;;;;;;5001649;28;20259;-75
2022/11/23 19:12:23;;;;;;;5.60;2.40;;;7.60;99.90;;;;;;4984277;28;20045;-76
2022/11/23 19:14:49;;;;;;;6.50;2.20;;;7.70;99.90;;;;;;5001534;28;20019;-75
2022/11/23 19:17:15;;;;;;;4.63;2.13;;;7.70;99.90;;;;;;4983909;28;20359;-75
2022/11/23 19:19:41;;;;;;;5.07;2.17;;;7.70;99.90;;;;;;4983917;28;20042;-75
2022/11/23 19:22:07;;;;;;;5.75;2.20;;;7.70;99.90;;;;;;5000750;28;20035;-74
2022/11/23 19:24:33;;;;;;;5.95;2.47;;;7.70;99.90;;;;;;4984047;28;20034;-74
2022/11/23 19:26:58;;;;;;;4.78;2.13;;;7.80;99.90;;;;;;5001301;28;20242;-75
2022/11/23 19:29:25;;;;;;;6.00;2.22;;;7.80;99.90;;;;;;4984453;28;20022;-76
2022/11/23 19:31:53;;;;;;;6.45;2.50;;;7.80;99.90;;;;;;4984056;28;20076;-75
2022/11/23 19:34:25;;;;;;;4.57;2.50;;;7.80;99.90;;;;;;4983971;28;20207;-77
2022/11/23 19:36:50;;;;;;;7.28;2.80;;;7.70;99.90;;;;;;4970639;28;20038;-76
2022/11/23 19:39:16;;;;;;;5.20;2.38;;;7.80;99.90;;;;;;4992287;28;20499;-75
2022/11/23 19:41:42;;;;;;;5.65;2.60;;;7.90;99.90;;;;;;5001607;28;20031;-76
2022/11/23 19:44:14;;;;;;;6.97;2.33;;;7.90;99.90;;;;;;5000920;28;20262;-75
2022/11/23 19:46:42;;;;;;;4.68;2.15;;;7.90;99.90;;;;;;4984940;28;20015;-74
2022/11/23 19:49:08;;;;;;;5.65;2.35;;;7.90;99.90;;;;;;5001962;28;20347;-75
2022/11/23 19:51:34;;;;;;;4.55;2.30;;;7.90;99.90;;;;;;4985418;28;20109;-75
2022/11/23 19:54:00;;;;;;;9.18;2.53;;;7.90;99.90;;;;;;5004784;28;20053;-74
2022/11/23 19:56:28;;;;;;;5.10;2.63;;;7.90;99.90;;;;;;5009010;28;20030;-75
2022/11/23 19:58:58;;;;;;;5.30;2.63;;;7.90;99.90;;;;;;5003505;28;20045;-75